Time;durP1;ratioP1;P1;durP2;ratioP2;P2;SDS_P1;SDS_P2;PMS_P1;PMS_P2;Temp;Humidity;BMP_temperature;BMP_pressure;BME280_temperature;BME280_humidity;BME280_pressure;Samples;Min_cycle;Max_cycle;Signal;HPM_P1;HPM_P2
2022/11/03 00:01:14;;;;;;;14.55;8.60;;;13.10;99.90;;;;;;5052118;28;20502;-66
2022/11/03 00:04:20;;;;;;;14.20;7.90;;;13.10;99.90;;;;;;5051430;28;20495;-67
2022/11/03 00:07:24;;;;;;;14.38;7.90;;;13.10;99.90;;;;;;5051371;28;20044;-66
2022/11/03 00:10:29;;;;;;;16.63;8.68;;;13.80;99.90;;;;;;5051627;28;20411;-67
2022/11/03 00:13:34;;;;;;;13.07;7.75;;;13.10;99.90;;;;;;5051127;28;20412;-66
2022/11/03 00:16:38;;;;;;;13.52;8.02;;;14.00;99.90;;;;;;5051200;28;20044;-66
2022/11/03 00:19:42;;;;;;;14.50;8.38;;;13.10;99.90;;;;;;5051476;28;20063;-67
2022/11/03 00:22:46;;;;;;;18.92;7.90;;;13.20;99.90;;;;;;5051395;28;20044;-66
2022/11/03 00:25:50;;;;;;;14.23;7.97;;;13.10;99.90;;;;;;5051161;28;20043;-66
2022/11/03 00:28:56;;;;;;;13.77;7.75;;;13.00;99.90;;;;;;5050660;28;20396;-66
2022/11/03 00:32:00;;;;;;;18.15;8.30;;;13.00;99.90;;;;;;5051723;28;20052;-67
2022/11/03 00:35:04;;;;;;;13.25;8.35;;;13.00;99.90;;;;;;5051181;28;20036;-67
2022/11/03 00:38:08;;;;;;;14.75;8.48;;;12.90;99.90;;;;;;5038772;28;20036;-67
2022/11/03 00:41:13;;;;;;;17.13;9.43;;;12.90;99.90;;;;;;5051794;28;20044;-67
2022/11/03 00:44:17;;;;;;;14.43;8.77;;;12.90;99.90;;;;;;5050189;28;20047;-66
2022/11/03 00:47:21;;;;;;;17.20;8.88;;;12.80;99.90;;;;;;5051417;28;20147;-66
2022/11/03 00:50:25;;;;;;;20.58;10.07;;;12.80;99.90;;;;;;5051104;28;20044;-66
2022/11/03 00:53:30;;;;;;;19.33;10.38;;;12.60;99.90;;;;;;5051167;28;20039;-67
2022/11/03 00:56:37;;;;;;;19.88;11.50;;;12.50;99.90;;;;;;5051306;28;20056;-67
2022/11/03 00:59:40;;;;;;;19.27;11.63;;;12.50;99.90;;;;;;5051212;28;20088;-66
2022/11/03 01:02:44;;;;;;;20.95;11.70;;;12.40;99.90;;;;;;5051211;28;20523;-66
2022/11/03 01:09:12;;;;;;;;;;;12.30;99.90;;;;;;5051446;28;20041;-67
2022/11/03 01:12:17;;;;;;;19.48;11.57;;;12.30;99.90;;;;;;5050926;28;19908;-66
2022/11/03 01:15:21;;;;;;;21.83;12.23;;;12.30;99.90;;;;;;5050936;28;20036;-66
2022/11/03 01:18:25;;;;;;;27.48;14.57;;;13.30;99.90;;;;;;5051059;28;20483;-67
2022/11/03 01:21:29;;;;;;;24.30;14.27;;;12.20;99.90;;;;;;5051110;28;20040;-67
2022/11/03 01:24:34;;;;;;;27.67;15.93;;;12.20;99.90;;;;;;5050544;28;20060;-66
2022/11/03 01:27:38;;;;;;;28.50;15.32;;;12.20;99.90;;;;;;5050812;28;20044;-66
2022/11/03 01:30:42;;;;;;;27.27;16.00;;;12.20;99.90;;;;;;5038550;28;20036;-66
2022/11/03 01:33:49;;;;;;;35.63;16.42;;;12.20;99.90;;;;;;5050073;28;20071;-66
2022/11/03 01:36:52;;;;;;;30.58;15.85;;;12.20;99.90;;;;;;5050855;28;20052;-66
2022/11/03 01:39:56;;;;;;;26.67;15.02;;;12.20;99.90;;;;;;5050628;28;20076;-67
2022/11/03 01:43:18;;;;;;;25.50;14.98;;;12.20;99.90;;;;;;5050912;28;20040;-66
2022/11/03 01:46:25;;;;;;;25.98;13.63;;;12.20;99.90;;;;;;5050580;28;20048;-66
2022/11/03 01:49:44;;;;;;;20.75;12.05;;;12.20;99.90;;;;;;5051038;28;20062;-66
2022/11/03 01:52:53;;;;;;;15.07;10.30;;;12.10;99.90;;;;;;5050809;28;20052;-66
2022/11/03 01:56:01;;;;;;;21.48;11.25;;;12.20;99.90;;;;;;5054318;28;20060;-67
2022/11/03 01:59:06;;;;;;;21.05;11.80;;;12.20;99.90;;;;;;5054009;28;20060;-66
2022/11/03 02:02:10;;;;;;;23.63;11.95;;;12.20;99.90;;;;;;5054377;28;20060;-66
2022/11/03 02:05:15;;;;;;;23.08;12.38;;;12.10;99.90;;;;;;5054129;28;20044;-67
2022/11/03 02:08:39;;;;;;;21.88;13.27;;;12.10;99.90;;;;;;5041990;28;20064;-66
2022/11/03 02:15:09;;;;;;;22.15;12.68;;;12.10;99.90;;;;;;5053990;28;20036;-66
2022/11/03 02:18:15;;;;;;;19.48;11.43;;;12.10;99.90;;;;;;5054083;28;20048;-66
2022/11/03 02:21:35;;;;;;;20.38;11.80;;;12.10;99.90;;;;;;5053937;28;20047;-67
2022/11/03 02:24:51;;;;;;;19.02;12.38;;;12.10;99.90;;;;;;5053466;28;20040;-66
2022/11/03 02:27:56;;;;;;;27.00;13.38;;;12.00;99.90;;;;;;5053767;28;20491;-66
2022/11/03 02:31:28;;;;;;;20.58;13.48;;;11.90;99.90;;;;;;5053531;28;20047;-66
2022/11/03 02:34:47;;;;;;;22.00;13.05;;;11.80;99.90;;;;;;5053595;28;20427;-66
2022/11/03 02:37:56;;;;;;;22.33;13.88;;;11.70;99.90;;;;;;5053533;28;20387;-66
2022/11/03 02:41:04;;;;;;;23.88;13.00;;;11.70;99.90;;;;;;5053176;28;20044;-66
2022/11/03 02:44:17;;;;;;;22.05;13.48;;;11.70;99.90;;;;;;5053162;28;20095;-66
2022/11/03 02:47:24;;;;;;;21.05;12.85;;;11.60;99.90;;;;;;5053587;28;20032;-66
2022/11/03 02:50:30;;;;;;;25.15;12.88;;;11.70;99.90;;;;;;5053351;28;20044;-65
2022/11/03 02:53:58;;;;;;;24.35;13.50;;;11.60;99.90;;;;;;5052873;28;20040;-66
2022/11/03 02:57:06;;;;;;;27.65;13.95;;;11.60;99.90;;;;;;5053212;28;20052;-66
2022/11/03 03:00:11;;;;;;;20.48;14.80;;;11.60;99.90;;;;;;5052940;28;20040;-66
2022/11/03 03:03:38;;;;;;;25.92;15.32;;;11.60;99.90;;;;;;5052838;28;20052;-66
2022/11/03 03:07:00;;;;;;;29.05;15.32;;;11.60;99.90;;;;;;5052791;28;20036;-66
2022/11/03 03:10:09;;;;;;;30.15;15.80;;;11.60;99.90;;;;;;5053165;28;20044;-66
2022/11/03 03:13:17;;;;;;;29.98;16.83;;;11.60;99.90;;;;;;5052940;28;20048;-67
2022/11/03 03:16:31;;;;;;;28.58;15.45;;;11.50;99.90;;;;;;5052647;28;20044;-66
2022/11/03 03:19:47;;;;;;;29.13;17.08;;;11.50;99.90;;;;;;5052555;28;20052;-66
2022/11/03 03:22:57;;;;;;;29.92;15.98;;;11.40;99.90;;;;;;5052721;28;20052;-66
2022/11/03 03:26:09;;;;;;;27.92;15.95;;;11.40;99.90;;;;;;5052617;28;20396;-65
2022/11/03 03:29:40;;;;;;;28.10;14.43;;;11.30;99.90;;;;;;5052274;28;20384;-65
2022/11/03 03:32:47;;;;;;;22.20;15.20;;;11.00;99.90;;;;;;5052607;28;20036;-66
2022/11/03 03:35:53;;;;;;;31.38;16.25;;;11.20;99.90;;;;;;5052576;28;20048;-66
2022/11/03 03:39:01;;;;;;;29.13;16.85;;;11.20;99.90;;;;;;5052189;28;20051;-66
2022/11/03 03:42:09;;;;;;;26.23;15.90;;;11.20;99.90;;;;;;5052451;28;20044;-66
2022/11/03 03:45:13;;;;;;;24.60;14.77;;;11.20;99.90;;;;;;5051845;28;20063;-66
2022/11/03 03:48:18;;;;;;;27.75;15.52;;;11.30;99.90;;;;;;5052277;28;20047;-66
2022/11/03 03:51:25;;;;;;;25.85;15.48;;;11.40;99.90;;;;;;5052741;28;20059;-66
2022/11/03 03:54:29;;;;;;;24.92;15.55;;;11.40;99.90;;;;;;5051997;28;20047;-66
2022/11/03 03:57:33;;;;;;;25.67;15.73;;;11.50;99.90;;;;;;5051778;28;20130;-66
2022/11/03 04:00:39;;;;;;;28.75;15.48;;;11.50;99.90;;;;;;5052138;28;20044;-66
2022/11/03 04:03:43;;;;;;;29.73;15.55;;;11.60;99.90;;;;;;5051697;28;20047;-67
2022/11/03 04:06:47;;;;;;;38.08;18.45;;;11.60;99.90;;;;;;5051884;28;20059;-66
2022/11/03 04:09:51;;;;;;;41.60;18.80;;;11.80;99.90;;;;;;5051541;28;20040;-66
2022/11/03 04:23:02;;;;;;;49.15;20.45;;;12.00;99.90;;;;;;5051605;28;19909;-66
2022/11/03 04:26:11;;;;;;;48.05;20.55;;;12.00;99.90;;;;;;5051350;28;20048;-66
2022/11/03 04:29:15;;;;;;;42.55;20.00;;;11.90;99.90;;;;;;5051512;28;20044;-66
2022/11/03 04:32:19;;;;;;;63.78;22.65;;;11.80;99.90;;;;;;5051403;28;20327;-66
2022/11/03 04:35:26;;;;;;;48.88;21.20;;;11.70;99.90;;;;;;5051262;28;20408;-66
2022/11/03 04:38:30;;;;;;;51.83;22.58;;;11.60;99.90;;;;;;5051342;28;20052;-66
2022/11/03 04:41:36;;;;;;;47.65;20.40;;;11.60;99.90;;;;;;5051213;28;20051;-66
2022/11/03 04:44:40;;;;;;;57.97;23.45;;;11.60;99.90;;;;;;5050994;28;20056;-66
2022/11/03 04:47:44;;;;;;;43.60;21.10;;;11.60;99.90;;;;;;5051415;28;20127;-66
2022/11/03 04:50:53;;;;;;;54.95;21.73;;;11.50;99.90;;;;;;5051170;28;20048;-66
2022/11/03 04:54:11;;;;;;;66.82;22.85;;;11.50;99.90;;;;;;5050915;28;20059;-66
2022/11/03 04:57:16;;;;;;;42.83;19.75;;;11.40;99.90;;;;;;5051347;28;20048;-66
2022/11/03 05:00:20;;;;;;;44.65;20.15;;;11.30;99.90;;;;;;5051143;28;20056;-66
2022/11/03 05:03:33;;;;;;;34.03;17.48;;;11.20;99.90;;;;;;5051085;28;20060;-66
2022/11/03 05:06:37;;;;;;;43.22;18.88;;;11.20;99.90;;;;;;5051076;28;20056;-66
2022/11/03 05:09:42;;;;;;;29.63;15.10;;;11.10;99.90;;;;;;5051272;28;20388;-66
2022/11/03 05:12:47;;;;;;;33.00;17.52;;;11.10;99.90;;;;;;5051196;28;20048;-66
2022/11/03 05:15:53;;;;;;;32.38;17.10;;;11.10;99.90;;;;;;5050253;28;20048;-66
2022/11/03 05:18:57;;;;;;;30.17;16.85;;;11.10;99.90;;;;;;5051121;28;20123;-66
2022/11/03 05:22:03;;;;;;;30.75;15.80;;;11.10;99.90;;;;;;5051234;28;20045;-66
2022/11/03 05:25:33;;;;;;;30.20;15.02;;;11.10;99.90;;;;;;5050624;28;20063;-65
2022/11/03 05:28:41;;;;;;;27.05;15.15;;;11.00;99.90;;;;;;5051395;28;20063;-66
2022/11/03 05:31:47;;;;;;;25.02;14.82;;;11.00;99.90;;;;;;5054696;28;20495;-65
2022/11/03 05:34:52;;;;;;;26.08;13.57;;;10.90;99.90;;;;;;5042138;28;20044;-65
2022/11/03 05:37:56;;;;;;;21.52;12.23;;;11.00;99.90;;;;;;5054662;28;20044;-65
2022/11/03 05:41:00;;;;;;;21.80;13.00;;;11.00;99.90;;;;;;5054872;28;20048;-65
2022/11/03 05:44:29;;;;;;;24.38;13.93;;;11.00;99.90;;;;;;5054232;28;20411;-66
2022/11/03 05:47:35;;;;;;;18.58;12.05;;;11.10;99.90;;;;;;5054661;28;20032;-66
2022/11/03 05:50:41;;;;;;;22.67;11.75;;;11.10;99.90;;;;;;5054556;28;20040;-66
2022/11/03 05:53:47;;;;;;;19.77;12.57;;;11.20;99.90;;;;;;5054000;28;20060;-66
2022/11/03 05:56:51;;;;;;;16.48;11.00;;;11.40;99.90;;;;;;5054565;28;20044;-66
2022/11/03 05:59:55;;;;;;;17.55;11.18;;;11.40;99.90;;;;;;5054399;28;20051;-65
2022/11/03 06:03:00;;;;;;;18.17;10.27;;;11.50;99.90;;;;;;5054093;28;20044;-67
2022/11/03 06:06:27;;;;;;;19.02;10.77;;;11.60;99.90;;;;;;5042093;28;20056;-66
2022/11/03 06:09:32;;;;;;;17.20;10.00;;;11.70;99.90;;;;;;5054081;28;20048;-66
2022/11/03 06:12:36;;;;;;;19.75;9.20;;;11.80;99.90;;;;;;5053839;28;20036;-66
2022/11/03 06:15:43;;;;;;;17.83;9.45;;;11.90;99.90;;;;;;5054038;28;20052;-65
2022/11/03 06:18:47;;;;;;;13.27;9.52;;;12.00;99.90;;;;;;5053907;28;20052;-66
2022/11/03 06:21:55;;;;;;;19.80;9.18;;;12.10;99.90;;;;;;5053773;28;20408;-66
2022/11/03 06:25:22;;;;;;;19.63;9.70;;;12.30;99.90;;;;;;5053591;28;20055;-66
2022/11/03 06:28:31;;;;;;;17.35;9.27;;;12.40;99.90;;;;;;5050943;28;20036;-66
2022/11/03 06:31:37;;;;;;;15.77;8.82;;;12.40;99.90;;;;;;5053207;28;20052;-66
2022/11/03 06:34:46;;;;;;;14.38;9.18;;;12.50;99.90;;;;;;5052089;28;20064;-66
2022/11/03 06:37:50;;;;;;;14.82;7.85;;;12.90;99.90;;;;;;5053157;28;20051;-66
2022/11/03 06:40:56;;;;;;;13.55;7.10;;;14.50;99.90;;;;;;5040365;28;20047;-66
2022/11/03 06:44:16;;;;;;;19.67;10.15;;;14.60;99.90;;;;;;5051831;28;20048;-66
2022/11/03 06:47:26;;;;;;;20.80;9.00;;;13.40;99.90;;;;;;5053661;28;20123;-66
2022/11/03 06:50:31;;;;;;;14.38;8.52;;;16.30;99.90;;;;;;5053614;28;20040;-66
2022/11/03 06:53:35;;;;;;;16.65;9.40;;;16.40;99.90;;;;;;5052959;28;20040;-66
2022/11/03 06:56:40;;;;;;;16.10;8.93;;;18.40;99.90;;;;;;5053469;28;20154;-66
2022/11/03 06:59:45;;;;;;;20.52;8.30;;;19.50;99.90;;;;;;5045922;28;20147;-67
2022/11/03 07:02:58;;;;;;;14.93;8.70;;;21.00;99.90;;;;;;5048717;28;20053;-67
2022/11/03 07:06:16;;;;;;;13.27;8.40;;;20.00;99.90;;;;;;5033145;28;20044;-66
2022/11/03 07:09:22;;;;;;;15.38;8.50;;;19.10;99.90;;;;;;5046277;28;20032;-67
2022/11/03 07:12:27;;;;;;;15.10;8.30;;;19.00;99.90;;;;;;5048509;28;20052;-67
2022/11/03 07:15:33;;;;;;;11.50;6.93;;;19.80;99.90;;;;;;5040936;28;20518;-67
2022/11/03 07:18:42;;;;;;;11.77;7.22;;;20.00;99.90;;;;;;5038327;28;20707;-66
2022/11/03 07:21:54;;;;;;;13.63;7.97;;;19.00;99.90;;;;;;5033041;28;20049;-66
2022/11/03 07:25:02;;;;;;;13.95;7.90;;;18.50;99.90;;;;;;5032282;28;20044;-66
2022/11/03 07:28:09;;;;;;;13.25;7.22;;;18.40;99.90;;;;;;5039494;28;20044;-67
2022/11/03 07:31:21;;;;;;;13.57;7.35;;;19.00;99.90;;;;;;5033023;28;20045;-67
2022/11/03 07:34:35;;;;;;;15.15;8.75;;;16.70;99.90;;;;;;5052062;28;20052;-67
2022/11/03 07:37:40;;;;;;;18.45;9.48;;;16.90;99.90;;;;;;5052551;28;20036;-66
2022/11/03 07:40:45;;;;;;;18.50;9.43;;;15.80;99.90;;;;;;5042077;28;20367;-67
2022/11/03 07:43:56;;;;;;;17.25;9.30;;;15.10;99.90;;;;;;5048606;28;20040;-67
2022/11/03 07:47:02;;;;;;;15.93;9.70;;;15.30;99.90;;;;;;5042905;28;20041;-66
2022/11/03 07:50:13;;;;;;;18.85;9.48;;;15.70;99.90;;;;;;5032336;28;20267;-66
2022/11/03 07:53:39;;;;;;;13.15;8.65;;;16.00;99.90;;;;;;5032505;28;20044;-67
2022/11/03 07:57:03;;;;;;;14.63;9.55;;;16.50;99.90;;;;;;5044604;28;20524;-67
2022/11/03 08:00:16;;;;;;;16.38;9.15;;;16.60;99.90;;;;;;5044309;28;20120;-67
2022/11/03 08:03:30;;;;;;;15.20;9.52;;;16.50;99.90;;;;;;5041456;28;20036;-67
2022/11/03 08:06:34;;;;;;;17.40;9.45;;;16.10;99.90;;;;;;5042682;28;20052;-67
2022/11/03 08:09:38;;;;;;;14.55;9.52;;;16.00;99.90;;;;;;5051458;28;20511;-66
2022/11/03 08:12:42;;;;;;;13.95;9.48;;;16.50;99.90;;;;;;5042606;28;20048;-66
2022/11/03 08:15:46;;;;;;;15.75;9.00;;;17.90;99.90;;;;;;5031351;28;20044;-67
2022/11/03 08:18:50;;;;;;;16.98;9.27;;;17.90;99.90;;;;;;5032142;28;20044;-66
2022/11/03 08:21:53;;;;;;;16.52;8.88;;;18.20;99.90;;;;;;5032300;28;20512;-66
2022/11/03 08:24:57;;;;;;;15.77;8.20;;;18.90;99.90;;;;;;5031031;28;20052;-67
2022/11/03 08:28:02;;;;;;;11.55;7.78;;;19.90;99.90;;;;;;5035696;28;20044;-67
2022/11/03 08:31:06;;;;;;;15.40;8.10;;;20.30;99.90;;;;;;5040019;28;20048;-67
2022/11/03 08:34:11;;;;;;;14.77;7.57;;;20.50;99.90;;;;;;5031334;28;20053;-66
2022/11/03 08:37:14;;;;;;;14.68;7.88;;;20.10;99.90;;;;;;5053497;28;20389;-67
2022/11/03 08:40:18;;;;;;;11.45;7.68;;;20.70;99.90;;;;;;5031263;28;20052;-66
2022/11/03 08:43:22;;;;;;;14.82;7.60;;;21.20;99.90;;;;;;5042407;28;20043;-67
2022/11/03 08:46:26;;;;;;;25.95;12.75;;;21.80;99.90;;;;;;5046027;28;20044;-67
2022/11/03 08:49:30;;;;;;;15.43;9.93;;;22.30;99.90;;;;;;5040230;28;20036;-67
2022/11/03 08:52:34;;;;;;;15.80;10.20;;;21.40;99.90;;;;;;5033599;28;20048;-67
2022/11/03 08:55:38;;;;;;;20.70;9.85;;;20.20;99.90;;;;;;5031366;28;20057;-67
2022/11/03 08:58:43;;;;;;;26.05;10.20;;;20.00;99.90;;;;;;5032753;28;20056;-66
2022/11/03 09:01:47;;;;;;;24.48;14.10;;;19.00;99.90;;;;;;5031607;28;20483;-67
2022/11/03 09:04:51;;;;;;;18.58;10.02;;;19.30;99.90;;;;;;5043286;28;20040;-67
2022/11/03 09:07:55;;;;;;;25.52;12.05;;;19.70;99.90;;;;;;5044375;28;20052;-67
2022/11/03 09:10:59;;;;;;;19.42;10.88;;;19.00;99.90;;;;;;5049724;28;20044;-67
2022/11/03 09:14:03;;;;;;;17.92;11.85;;;18.90;99.90;;;;;;5041566;28;20040;-67
2022/11/03 09:17:07;;;;;;;20.50;10.63;;;18.60;99.90;;;;;;5046140;28;20256;-67
2022/11/03 09:20:11;;;;;;;16.25;9.60;;;18.80;99.90;;;;;;5043125;28;20040;-67
2022/11/03 09:23:15;;;;;;;26.90;10.27;;;19.20;99.90;;;;;;5039075;28;20040;-67
2022/11/03 09:26:19;;;;;;;18.58;10.05;;;20.00;99.90;;;;;;5038998;28;20044;-67
2022/11/03 09:29:23;;;;;;;16.98;9.63;;;20.40;99.90;;;;;;5043046;28;20044;-67
2022/11/03 09:32:27;;;;;;;16.42;9.10;;;20.70;99.90;;;;;;5048292;28;20036;-67
2022/11/03 09:35:31;;;;;;;14.88;8.73;;;20.10;99.90;;;;;;5043929;28;20060;-66
2022/11/03 09:38:35;;;;;;;19.75;9.38;;;19.60;99.90;;;;;;5037908;28;20431;-67
2022/11/03 09:41:42;;;;;;;14.02;7.95;;;19.40;99.90;;;;;;5046453;28;20044;-67
2022/11/03 09:44:47;;;;;;;14.57;8.02;;;20.00;99.90;;;;;;5038782;28;20055;-67
2022/11/03 09:47:52;;;;;;;16.48;8.55;;;20.30;99.90;;;;;;5034934;28;20404;-66
2022/11/03 09:50:56;;;;;;;15.82;9.82;;;19.80;99.90;;;;;;5041011;28;20040;-67
2022/11/03 09:54:04;;;;;;;17.35;9.07;;;18.20;99.90;;;;;;5034322;28;20040;-67
2022/11/03 09:57:14;;;;;;;23.35;9.85;;;17.70;99.90;;;;;;5047401;28;20033;-67
2022/11/03 10:00:20;;;;;;;17.60;10.13;;;17.00;99.90;;;;;;5043719;28;20040;-66
2022/11/03 10:03:24;;;;;;;14.85;10.35;;;16.60;99.90;;;;;;5034613;28;20056;-67
2022/11/03 10:06:28;;;;;;;20.77;10.95;;;16.40;99.90;;;;;;5039734;28;20056;-67
2022/11/03 10:09:33;;;;;;;18.23;10.57;;;16.50;99.90;;;;;;5035227;28;20049;-67
2022/11/03 10:12:37;;;;;;;18.95;11.10;;;16.50;99.90;;;;;;5043805;28;20053;-67
2022/11/03 10:15:41;;;;;;;16.63;10.48;;;16.80;99.90;;;;;;5033730;28;20056;-67
2022/11/03 10:18:45;;;;;;;24.20;10.30;;;17.10;99.90;;;;;;5054037;28;20392;-67
2022/11/03 10:21:50;;;;;;;16.92;9.73;;;17.50;99.90;;;;;;5050257;28;20048;-67
2022/11/03 10:25:24;;;;;;;26.23;10.88;;;17.80;99.90;;;;;;5042208;28;20048;-67
2022/11/03 10:28:29;;;;;;;16.40;9.65;;;18.20;99.90;;;;;;5044929;28;20040;-67
2022/11/03 10:31:38;;;;;;;20.92;9.10;;;18.70;99.90;;;;;;5046752;28;20581;-68
2022/11/03 10:34:42;;;;;;;20.50;9.93;;;19.10;99.90;;;;;;5041826;28;20044;-67
2022/11/03 10:37:46;;;;;;;25.95;9.43;;;19.40;99.90;;;;;;5048757;28;20059;-67
2022/11/03 10:40:50;;;;;;;17.75;8.50;;;20.40;99.90;;;;;;5043533;28;20052;-67
2022/11/03 10:44:13;;;;;;;15.18;8.75;;;21.00;99.90;;;;;;5045429;28;20048;-67
2022/11/03 10:47:33;;;;;;;18.80;8.82;;;20.30;99.90;;;;;;5039111;28;20120;-67
2022/11/03 10:50:39;;;;;;;15.68;6.43;;;20.70;99.90;;;;;;5034997;28;20059;-67
2022/11/03 10:53:43;;;;;;;13.43;6.30;;;23.20;99.90;;;;;;5045781;28;20120;-68
2022/11/03 10:56:47;;;;;;;11.75;6.07;;;25.10;99.90;;;;;;5047124;28;20040;-67
2022/11/03 10:59:53;;;;;;;13.43;6.32;;;24.60;99.90;;;;;;5047536;28;20048;-67
2022/11/03 11:02:59;;;;;;;11.95;6.43;;;24.30;99.90;;;;;;5042153;28;20052;-67
2022/11/03 11:06:03;;;;;;;15.02;5.95;;;24.90;99.90;;;;;;5047735;28;20070;-67
2022/11/03 11:09:14;;;;;;;11.98;5.60;;;25.00;99.90;;;;;;5043287;28;20048;-66
2022/11/03 11:12:23;;;;;;;12.52;5.45;;;24.50;99.90;;;;;;5040885;28;20048;-67
2022/11/03 11:15:58;;;;;;;10.70;5.43;;;24.40;99.90;;;;;;5046429;28;20803;-66
2022/11/03 11:19:02;;;;;;;10.65;5.30;;;23.90;99.90;;;;;;5049963;28;20052;-67
2022/11/03 11:22:12;;;;;;;12.88;6.28;;;23.00;99.90;;;;;;5048522;28;20052;-67
2022/11/03 11:25:17;;;;;;;10.77;5.47;;;22.70;99.90;;;;;;5045212;28;20040;-66
2022/11/03 11:28:21;;;;;;;12.85;5.55;;;23.00;99.90;;;;;;5042163;28;20044;-67
2022/11/03 11:31:25;;;;;;;7.18;4.68;;;23.30;99.90;;;;;;5043792;28;20088;-67
2022/11/03 11:34:33;;;;;;;6.63;4.25;;;22.80;99.90;;;;;;5048898;28;20044;-67
2022/11/03 11:37:37;;;;;;;7.20;4.32;;;22.10;99.90;;;;;;5043485;28;20040;-67
2022/11/03 11:40:51;;;;;;;9.18;4.80;;;21.90;99.90;;;;;;5049215;28;20510;-67
2022/11/03 11:44:33;;;;;;;8.07;4.85;;;20.80;99.90;;;;;;5033202;28;20044;-65
2022/11/03 11:47:42;;;;;;;;;;;21.60;99.90;;;;;;5032849;28;20044;-67
2022/11/03 11:50:47;;;;;;;12.93;4.70;;;21.60;99.90;;;;;;5048996;28;19909;-66
2022/11/03 11:53:51;;;;;;;12.55;4.82;;;21.20;99.90;;;;;;5046121;28;20060;-67
2022/11/03 11:56:55;;;;;;;9.82;4.38;;;20.70;99.90;;;;;;5036599;28;20063;-66
2022/11/03 11:59:59;;;;;;;8.07;4.07;;;20.90;99.90;;;;;;5036665;28;20052;-67
2022/11/03 12:03:05;;;;;;;10.00;4.72;;;21.70;99.90;;;;;;5046336;28;20068;-67
2022/11/03 12:06:12;;;;;;;8.18;4.40;;;22.80;99.90;;;;;;5039889;28;20052;-66
2022/11/03 12:09:21;;;;;;;15.57;4.50;;;22.90;99.90;;;;;;5041171;28;20059;-66
2022/11/03 12:12:32;;;;;;;10.98;3.75;;;22.80;99.90;;;;;;5048204;28;20396;-66
2022/11/03 12:15:58;;;;;;;7.40;3.53;;;22.60;99.90;;;;;;5043854;28;20044;-66
2022/11/03 12:19:38;;;;;;;8.68;3.15;;;22.40;99.90;;;;;;5042765;28;20044;-66
2022/11/03 12:22:42;;;;;;;6.60;4.05;;;22.20;99.90;;;;;;5045363;28;20393;-66
2022/11/03 12:25:46;;;;;;;8.43;4.32;;;21.90;99.90;;;;;;5051157;28;20036;-66
2022/11/03 12:28:50;;;;;;;9.52;4.13;;;21.30;99.90;;;;;;5037445;28;20311;-65
2022/11/03 12:31:54;;;;;;;8.65;4.35;;;20.20;99.90;;;;;;5038477;28;20052;-67
2022/11/03 12:34:58;;;;;;;9.35;4.47;;;20.00;99.90;;;;;;5037352;28;20048;-67
2022/11/03 12:38:03;;;;;;;5.80;3.90;;;20.30;99.90;;;;;;5044306;28;20052;-66
2022/11/03 12:41:23;;;;;;;8.25;4.40;;;21.30;99.90;;;;;;5045884;28;20850;-66
2022/11/03 12:44:27;;;;;;;8.88;3.97;;;22.30;99.90;;;;;;5040751;28;20048;-67
2022/11/03 12:47:31;;;;;;;8.43;3.80;;;22.20;99.90;;;;;;5044700;28;20056;-67
2022/11/03 12:50:36;;;;;;;6.22;3.88;;;22.40;99.90;;;;;;5041309;28;20044;-67
2022/11/03 12:53:40;;;;;;;5.20;3.72;;;23.40;99.90;;;;;;5036703;28;20048;-67
2022/11/03 12:56:45;;;;;;;12.60;3.30;;;25.50;99.90;;;;;;5040177;28;20075;-67
2022/11/03 12:59:51;;;;;;;4.30;3.55;;;25.40;99.90;;;;;;5044212;28;20056;-67
2022/11/03 13:02:55;;;;;;;6.97;3.47;;;25.50;99.90;;;;;;5028267;28;20044;-67
2022/11/03 13:06:03;;;;;;;7.72;3.53;;;25.30;99.90;;;;;;5020413;28;20051;-68
2022/11/03 13:09:07;;;;;;;7.18;4.07;;;24.70;99.90;;;;;;5036624;28;20036;-66
2022/11/03 13:12:30;;;;;;;9.63;3.95;;;23.10;99.90;;;;;;5045121;28;20049;-67
2022/11/03 13:15:33;;;;;;;6.30;3.53;;;22.80;99.90;;;;;;5040995;28;20036;-67
2022/11/03 13:18:38;;;;;;;6.65;4.13;;;22.40;99.90;;;;;;5040455;28;20039;-67
2022/11/03 13:21:42;;;;;;;7.97;4.15;;;22.00;99.90;;;;;;5042713;28;20056;-66
2022/11/03 13:24:46;;;;;;;8.73;4.63;;;21.40;99.90;;;;;;5028379;28;20052;-66
2022/11/03 13:27:53;;;;;;;9.65;5.65;;;21.10;99.90;;;;;;5044757;28;20498;-65
2022/11/03 13:30:58;;;;;;;9.15;4.97;;;20.30;99.90;;;;;;5044422;28;20057;-66
2022/11/03 13:34:02;;;;;;;13.10;5.07;;;19.80;99.90;;;;;;5044843;28;20495;-67
2022/11/03 13:37:06;;;;;;;12.07;5.75;;;19.70;99.90;;;;;;5041789;28;20051;-67
2022/11/03 13:40:14;;;;;;;9.63;4.95;;;19.80;99.90;;;;;;5045349;28;20052;-67
2022/11/03 13:43:18;;;;;;;8.05;5.40;;;19.70;99.90;;;;;;5041860;28;20056;-66
2022/11/03 13:46:23;;;;;;;7.63;5.65;;;19.90;99.90;;;;;;5037260;28;20052;-66
2022/11/03 13:49:27;;;;;;;14.57;5.38;;;19.70;99.90;;;;;;5043398;28;21137;-67
2022/11/03 13:52:31;;;;;;;9.23;4.93;;;19.50;99.90;;;;;;5042801;28;20048;-67
2022/11/03 13:55:36;;;;;;;11.10;4.55;;;19.50;99.90;;;;;;5044176;28;20036;-66
2022/11/03 13:58:40;;;;;;;8.18;5.03;;;19.80;99.90;;;;;;5033906;28;20499;-67
2022/11/03 14:01:45;;;;;;;12.07;4.30;;;21.20;99.90;;;;;;5044496;28;20052;-67
2022/11/03 14:04:49;;;;;;;11.15;4.65;;;22.90;99.90;;;;;;5046093;28;20060;-66
2022/11/03 14:07:54;;;;;;;9.23;4.63;;;23.70;99.90;;;;;;5046179;28;20497;-66
2022/11/03 14:10:58;;;;;;;7.72;3.80;;;24.60;99.90;;;;;;5045605;28;20044;-67
2022/11/03 14:14:02;;;;;;;13.27;3.95;;;25.60;99.90;;;;;;5046754;28;20036;-67
2022/11/03 14:17:06;;;;;;;9.88;3.75;;;25.90;99.90;;;;;;5047799;28;20040;-67
2022/11/03 14:20:11;;;;;;;11.15;4.38;;;26.30;99.90;;;;;;5047123;28;20053;-67
2022/11/03 14:23:15;;;;;;;8.52;3.38;;;26.00;99.90;;;;;;5045594;28;20040;-66
2022/11/03 14:26:19;;;;;;;7.15;3.60;;;26.00;99.90;;;;;;5046527;28;20478;-67
2022/11/03 14:29:23;;;;;;;6.40;2.80;;;25.70;99.90;;;;;;5051049;28;20036;-67
2022/11/03 14:32:27;;;;;;;8.82;3.17;;;25.80;99.90;;;;;;5051677;28;20044;-67
2022/11/03 14:35:31;;;;;;;5.45;2.95;;;25.80;99.90;;;;;;5050641;28;20510;-67
2022/11/03 14:38:35;;;;;;;8.52;3.38;;;25.10;99.90;;;;;;5048892;28;20056;-67
2022/11/03 14:45:01;;;;;;;6.70;3.17;;;24.80;99.90;;;;;;5049224;28;20363;-67
2022/11/03 14:48:07;;;;;;;10.88;3.45;;;24.20;99.90;;;;;;5043859;28;20057;-66
2022/11/03 14:51:11;;;;;;;8.32;3.92;;;23.30;99.90;;;;;;5048951;28;20518;-68
2022/11/03 14:54:15;;;;;;;9.02;4.20;;;22.70;99.90;;;;;;5051456;28;20040;-67
2022/11/03 14:57:19;;;;;;;7.80;4.65;;;21.70;99.90;;;;;;5034934;28;20534;-67
2022/11/03 15:00:23;;;;;;;8.60;5.35;;;20.90;99.90;;;;;;5047512;28;20040;-66
2022/11/03 15:03:27;;;;;;;12.38;5.68;;;20.20;99.90;;;;;;5034434;28;20052;-66
2022/11/03 15:06:35;;;;;;;10.65;4.78;;;20.00;99.90;;;;;;5046743;28;20032;-67
2022/11/03 15:09:40;;;;;;;12.45;5.65;;;19.70;99.90;;;;;;5046133;28;20052;-67
2022/11/03 15:12:43;;;;;;;12.77;6.20;;;19.40;99.90;;;;;;5050237;28;20044;-67
2022/11/03 15:15:47;;;;;;;11.77;5.45;;;19.10;99.90;;;;;;5048775;28;20051;-66
2022/11/03 15:18:52;;;;;;;10.20;5.95;;;18.90;99.90;;;;;;5037121;28;20052;-66
2022/11/03 15:21:56;;;;;;;11.65;5.68;;;18.50;99.90;;;;;;5034934;28;20048;-66
2022/11/03 15:25:00;;;;;;;11.45;6.18;;;18.30;99.90;;;;;;5048496;28;20051;-67
2022/11/03 15:28:04;;;;;;;13.98;5.88;;;18.20;99.90;;;;;;5052294;28;20534;-66
2022/11/03 15:31:08;;;;;;;11.50;6.15;;;18.20;99.90;;;;;;5052876;28;20055;-66
2022/11/03 15:34:13;;;;;;;18.08;6.05;;;18.10;99.90;;;;;;5052045;28;20060;-66
2022/11/03 15:37:17;;;;;;;12.93;7.28;;;18.00;99.90;;;;;;5051434;28;20396;-66
2022/11/03 15:40:21;;;;;;;18.70;7.57;;;18.00;99.90;;;;;;5045302;28;20036;-66
2022/11/03 15:43:25;;;;;;;16.35;7.70;;;17.50;99.90;;;;;;5043505;28;20495;-66
2022/11/03 15:46:29;;;;;;;14.55;7.60;;;17.50;99.90;;;;;;5034842;28;20048;-66
2022/11/03 15:49:33;;;;;;;12.65;6.90;;;17.40;99.90;;;;;;5045298;28;20044;-67
2022/11/03 15:52:37;;;;;;;16.60;7.30;;;17.40;99.90;;;;;;5050769;28;20495;-67
2022/11/03 15:55:41;;;;;;;12.07;6.70;;;17.40;99.90;;;;;;5049262;28;20040;-67
2022/11/03 15:58:45;;;;;;;10.73;6.18;;;17.50;99.90;;;;;;5046880;28;20048;-67
2022/11/03 16:01:49;;;;;;;15.15;6.63;;;17.40;99.90;;;;;;5044109;28;20048;-67
2022/11/03 16:04:54;;;;;;;14.65;6.28;;;17.30;99.90;;;;;;5041122;28;20559;-68
2022/11/03 16:07:59;;;;;;;13.98;6.25;;;17.30;99.90;;;;;;5045993;28;20533;-67
2022/11/03 16:11:03;;;;;;;11.73;6.57;;;17.30;99.90;;;;;;5048491;28;20052;-67
2022/11/03 16:14:06;;;;;;;12.20;6.13;;;17.30;99.90;;;;;;5050099;28;20052;-67
2022/11/03 16:17:12;;;;;;;11.25;6.05;;;17.40;99.90;;;;;;5042228;28;20151;-68
2022/11/03 16:20:16;;;;;;;12.40;6.53;;;17.40;99.90;;;;;;5047146;28;20056;-67